• Join FlightAware (Why Join?)
  • Login
  • US Flag 
09:53PM EDT


 

Airport Tracker/Info


-or-


 

Live Flight TrackerFlight Track Log ✈ DAL3698 ✈ 15-Apr-2013 ✈ KLAN - KMSP

Flight Track Log - Related Links

Times and Time Zones

All times are in EDT time to prevent confusion due to time zone crossing. See the DAL3698 flight status page for this flight to view local times or setup timezone preferences in your user account.

Time Position Orientation Groundspeed Altitude Reporting Facility
EDT Latitude Longitude Course Direction KTS MPH feet Rate Location/Type
07:26AM 42.8567 -84.5103 278° West 261 300 3,000  Level Chicago Center
07:27AM 42.8653 -84.5436 289° West 227 261 4,100 1,620 Climbing Cleveland Center
07:28AM 42.8547 -84.6881 264° West 233 268 6,500 1,680 Climbing Minneapolis Center
07:29AM 42.8475 -84.7647 263° West 251 289 8,500 1,860 Climbing Chicago Center
07:30AM 42.8383 -84.8856 264° West 266 306 10,200 1,680 Climbing Chicago Center
07:31AM 42.7747 -85.3971 278° West  Level FlightAware Approximate
07:31AM 42.8561 -85.0039 282° West 329 379 12,000  Level Chicago Center
07:32AM 42.8881 -85.1247 290° West 339 390 13,400 1,800 Climbing Chicago Center
07:33AM 42.9219 -85.2475 291° West 347 399 15,700 1,680 Climbing Chicago Center
07:34AM 42.9536 -85.3669 290° West 337 388 16,900 1,200 Climbing Chicago Center
07:35AM 42.9864 -85.4875 290° West 339 390 18,200 1,260 Climbing Chicago Center
07:36AM 43.0197 -85.6097 290° West 343 395 19,500 1,140 Climbing Chicago Center
07:37AM 43.0519 -85.7339 290° West 347 399 20,600 1,080 Climbing Chicago Center
07:38AM 43.0917 -85.8808 290° West 350 403 21,800 1,020 Climbing Chicago Center
07:39AM 43.1242 -86.0044 290° West 357 411 22,700 720 Climbing Chicago Center
07:40AM 43.1569 -86.1314 290° West 361 415 23,300 540 Climbing Chicago Center
07:41AM 43.1903 -86.2617 289° West 365 420 23,900 600 Climbing Chicago Center
07:42AM 43.2242 -86.3900 290° West 362 417 24,600 840 Climbing Chicago Center
07:43AM 43.2644 -86.5447 290° West 359 413 25,700 960 Climbing Chicago Center
07:44AM 43.2964 -86.6681 290° West 347 399 26,600 780 Climbing Chicago Center
07:46AM 43.3272 -86.7903 289° West 342 394 27,300 600 Climbing Chicago Center
07:47AM 43.3581 -86.9125 289° West 340 391 27,900 300 Climbing Chicago Center
07:48AM 43.3889 -87.0350 289° West 340 391 28,000  Climbing Chicago Center
07:49AM 43.4211 -87.1594 290° West 344 396 28,000  Level Chicago Center
07:50AM 43.4511 -87.2814 289° West 339 390 28,000  Level Chicago Center
07:51AM 43.4817 -87.4047 289° West 329 379 28,000  Level Chicago Center
07:52AM 43.5136 -87.5383 288° West 316 364 28,000  Level Chicago Center
07:53AM 43.5414 -87.6508 289° West 312 359 28,000  Level Chicago Center
07:54AM 43.5689 -87.7628 289° West 310 357 28,000  Level Chicago Center
07:55AM 43.5964 -87.8753 289° West 310 357 28,000  Level Chicago Center
07:56AM 43.6239 -87.9908 288° West 316 364 28,000  Level Chicago Center
07:57AM 43.6467 -88.0872 288° West 318 366 28,000  Level Minneapolis Center
07:58AM 43.6742 -88.2036 288° West 320 368 28,000  Level Minneapolis Center
07:59AM 43.7025 -88.3200 289° West 322 371 28,000  Level Minneapolis Center
08:00AM 43.7192 -88.4353 281° West 311 358 28,000  Level Minneapolis Center
08:01AM 43.7286 -88.5492 277° West 302 348 28,000  Level Minneapolis Center
08:02AM 43.7375 -88.6608 276° West 297 342 28,000  Level Minneapolis Center
08:03AM 43.7456 -88.7694 276° West 289 333 28,000  Level Minneapolis Center
08:04AM 43.7633 -88.8747 283° West 286 329 28,000  Level Minneapolis Center
08:04AM 43.7794 -88.9294 292° West 301 346 28,000  Level Chicago Center
08:05AM 43.8006 -89.0008 292° West 302 348 28,000  Level Minneapolis Center
08:06AM 43.8325 -89.1147 291° West 313 360 28,000  Level Minneapolis Center
08:07AM 43.8672 -89.2325 292° West 327 376 28,000  Level Minneapolis Center
08:08AM 43.9022 -89.3533 292° West 335 386 28,000  Level Minneapolis Center
08:09AM 43.9381 -89.4756 292° West 340 391 28,000  Level Minneapolis Center
08:10AM 43.9728 -89.5972 292° West 340 391 28,000  Level Minneapolis Center
08:11AM 44.0192 -89.7156 299° West 347 399 28,000  Level Minneapolis Center
08:12AM 44.0697 -89.8336 301° West 354 407 28,000  Level Minneapolis Center
08:13AM 44.1203 -89.9533 300° West 358 412 28,000  Level Minneapolis Center
08:14AM 44.1706 -90.0739 300° West 360 414 28,000  Level Minneapolis Center
08:15AM 44.2203 -90.1953 300° West 360 414 28,000  Level Minneapolis Center
08:16AM 44.2700 -90.3158 300° West 359 413 28,000  Level Minneapolis Center
08:17AM 44.3272 -90.4575 299° West 359 413 28,000  Level Minneapolis Center
08:18AM 44.3769 -90.5758 300° West 355 409 28,000  Level Minneapolis Center
08:19AM 44.4253 -90.6964 299° West 355 409 28,000  Level Minneapolis Center
08:20AM 44.4742 -90.8189 299° West 360 414 28,000  Level Minneapolis Center
08:21AM 44.5189 -90.9325 299° West 361 415 28,000  Level Minneapolis Center
08:22AM 44.5703 -91.0575 300° West 368 423 28,000  Level Minneapolis Center
08:23AM 44.6211 -91.1864 299° West 376 433 28,000 -1,140 Level Minneapolis Center
08:24AM 44.6831 -91.3411 299° West 380 437 25,700 -2,160 Descending Minneapolis Center
08:25AM 44.7311 -91.4631 299° West 368 423 23,600 -2,100 Descending Minneapolis Center
08:26AM 44.7775 -91.5825 299° West 356 410 21,500 -2,100 Descending Minneapolis Center
08:27AM 44.8236 -91.6986 299° West 347 399 19,400 -2,160 Descending Minneapolis Center
08:28AM 44.8675 -91.8136 298° West 338 389 17,200 -2,220 Descending Minneapolis Center
08:29AM 44.9161 -91.9128 305° West 341 392 15,500 -1,980 Descending FAA TRACON SMA TRACON (SMA)
08:29AM 44.9294 -91.9489 298° West 339 390 15,000 -1,680 Descending FAA TRACON SMA TRACON (SMA)
08:29AM 44.9419 -91.9844 296° West 335 386 14,400 -1,800 Descending FAA TRACON SMA TRACON (SMA)
08:30AM 44.9586 -92.0292 298° West 332 382 13,800 -1,680 Descending FAA TRACON SMA TRACON (SMA)
08:30AM 44.9731 -92.0642 300° West 335 386 13,300 -1,500 Descending FAA TRACON SMA TRACON (SMA)
08:31AM 44.9831 -92.0983 292° West 327 376 12,800 -1,500 Descending FAA TRACON SMA TRACON (SMA)
08:31AM 45.0000 -92.1414 299° West 324 373 12,300 -1,560 Descending FAA TRACON SMA TRACON (SMA)
08:31AM 45.0142 -92.1758 300° West 326 375 11,800 -1,500 Descending FAA TRACON SMA TRACON (SMA)
08:31AM 45.0253 -92.2092 295° West 317 365 11,300 -1,440 Descending FAA TRACON SMA TRACON (SMA)
08:32AM 45.0419 -92.2508 300° West 315 362 10,900 -600 Descending FAA TRACON SMA TRACON (SMA)
08:32AM 45.0508 -92.2850 290° West 307 353 10,900  Level FAA TRACON SMA TRACON (SMA)
08:32AM 45.0519 -92.3211 273° West 302 348 10,900  Level FAA TRACON SMA TRACON (SMA)
08:33AM 45.0433 -92.3642 254° West 298 343 10,900 -480 Level FAA TRACON SMA TRACON (SMA)
08:33AM 45.0328 -92.3964 245° Southwest 298 343 10,600 -900 Descending FAA TRACON SMA TRACON (SMA)
08:33AM 45.0164 -92.4233 229° Southwest 296 341 10,300 -780 Descending FAA TRACON SMA TRACON (SMA)
08:34AM 44.9992 -92.4539 231° Southwest 272 313 10,100 -780 Descending FAA TRACON SMA TRACON (SMA)
08:34AM 44.9867 -92.4758 231° Southwest 247 284 9,800 -1,200 Descending FAA TRACON SMA TRACON (SMA)
08:34AM 44.9750 -92.4975 233° Southwest 229 264 9,300 -1,800 Descending FAA TRACON SMA TRACON (SMA)
08:35AM 44.9592 -92.5239 230° Southwest 224 258 8,600 -1,800 Descending FAA TRACON SMA TRACON (SMA)
08:35AM 44.9472 -92.5450 231° Southwest 225 259 8,100 -1,380 Descending FAA TRACON SMA TRACON (SMA)
08:35AM 44.9347 -92.5658 230° Southwest 224 258 7,700 -1,200 Descending FAA TRACON SMA TRACON (SMA)
08:36AM 44.9072 -92.6133 231° Southwest 226 260 6,900 -840 Descending FAA TRACON SMA TRACON (SMA)
08:36AM 44.8953 -92.6350 232° Southwest 229 264 6,900  Level FAA TRACON SMA TRACON (SMA)
08:37AM 44.8783 -92.6625 229° Southwest 235 270 6,900  Level FAA TRACON SMA TRACON (SMA)
08:37AM 44.8664 -92.6842 232° Southwest 233 268 6,900 -480 Level FAA TRACON SMA TRACON (SMA)
08:37AM 44.8542 -92.7047 230° Southwest 226 260 6,600 -1,380 Descending FAA TRACON SMA TRACON (SMA)
08:38AM 44.8392 -92.7297 230° Southwest 218 251 6,000 -1,680 Descending FAA TRACON SMA TRACON (SMA)
08:38AM 44.8272 -92.7506 231° Southwest 219 252 5,500 -1,500 Descending FAA TRACON SMA TRACON (SMA)
08:38AM 44.8144 -92.7711 229° Southwest 225 259 5,000 -1,380 Descending FAA TRACON SMA TRACON (SMA)
08:39AM 44.8028 -92.7922 232° Southwest 223 257 4,600 -1,080 Descending FAA TRACON SMA TRACON (SMA)
08:39AM 44.7878 -92.8181 231° Southwest 224 258 4,300 -900 Descending FAA TRACON SMA TRACON (SMA)
08:39AM 44.7758 -92.8389 231° Southwest 223 257 4,000 -480 Descending FAA TRACON SMA TRACON (SMA)
08:40AM 44.7642 -92.8589 231° Southwest 218 251 4,000  Level FAA TRACON SMA TRACON (SMA)
08:40AM 44.7564 -92.8875 249° West 216 249 4,000  Level FAA TRACON SMA TRACON (SMA)
08:40AM 44.7617 -92.9122 287° West 218 251 4,000  Level FAA TRACON SMA TRACON (SMA)
08:41AM 44.7686 -92.9347 294° West 207 238 4,000  Level FAA TRACON SMA TRACON (SMA)
08:41AM 44.7786 -92.9606 299° West 197 227 4,000  Level FAA TRACON SMA TRACON (SMA)
08:41AM 44.7881 -92.9811 303° West 200 230 4,000  Level FAA TRACON SMA TRACON (SMA)
08:42AM 44.7975 -93.0003 305° West 196 226 4,000 -300 Level FAA TRACON SMA TRACON (SMA)
08:42AM 44.8075 -93.0222 303° West 177 204 3,800 -600 Descending FAA TRACON SMA TRACON (SMA)
08:42AM 44.8142 -93.0389 299° West 161 185 3,600 -780 Descending FAA TRACON SMA TRACON (SMA)
08:43AM 44.8208 -93.0542 302° West 152 175 3,300 -900 Descending FAA TRACON SMA TRACON (SMA)
08:43AM 44.8281 -93.0714 301° West 134 154 3,000 -780 Descending FAA TRACON SMA TRACON (SMA)
08:43AM 44.8339 -93.0847 302° West 131 151 2,800 -780 Descending FAA TRACON SMA TRACON (SMA)
08:44AM 44.8400 -93.0989 301° West 132 152 2,500 -900 Descending FAA TRACON SMA TRACON (SMA)
08:44AM 44.8475 -93.1161 302° West 135 155 2,200 -780 Descending FAA TRACON SMA TRACON (SMA)
08:45AM 44.8539 -93.1306 302° West 139 160 2,000 -780 Descending FAA TRACON SMA TRACON (SMA)
08:45AM 44.8603 -93.1450 302° West 141 162 1,700 -900 Descending FAA TRACON SMA TRACON (SMA)
08:45AM 44.8681 -93.1636 301° West 143 165 1,400 -780 Descending FAA TRACON SMA TRACON (SMA)
08:45AM 44.8744 -93.1781 302° West 141 162 1,200 -660 Descending FAA TRACON SMA TRACON (SMA)
08:46AM 44.8792 -93.1892 301° West 142 163 1,000 -600 Descending FAA TRACON SMA TRACON (SMA)